Date,TemperatureHighF,TemperatureAvgF,TemperatureLowF,DewpointHighF,DewpointAvgF,DewpointLowF,HumidityHigh,HumidityAvg,HumidityLow,PressureMaxIn,PressureMinIn,WindSpeedMaxMPH,WindSpeedAvgMPH,GustSpeedMaxMPH,PrecipitationSumIn
2013-2-13,43,40,37,35,32,29,91,74,61,29.84,29.64,8,4,14,0.04
2013-2-14,47,43,39,32,30,27,71,61,46,30.01,29.99,4,3,14,0.00
2013-2-15,59,54,45,37,35,33,70,50,39,30.03,29.88,8,5,14,0.00
2013-2-16,39,35,31,28,22,16,64,57,51,29.90,29.86,7,5,14,0.00
2013-2-17,24,24,24,7,7,6,48,47,46,30.21,30.19,13,10,19,0.00
2013-2-18,46,39,30,17,13,9,45,34,26,30.38,30.23,9,5,14,0.00
2013-2-19,45,38,32,40,35,30,93,90,85,29.99,29.74,8,5,17,0.08
2013-2-20,43,35,26,19,15,12,61,44,32,30.14,29.96,14,6,25,0.01
2013-2-21,44,32,22,20,16,13,72,53,36,30.32,30.13,9,3,16,0.02
2013-2-22,35,31,29,26,22,18,75,68,62,30.37,30.25,6,2,9,0.03
2013-2-25,44,42,38,23,22,20,53,45,40,30.22,30.15,5,3,10,0.00
2013-2-26,43,39,35,41,38,32,95,94,89,30.08,29.60,13,10,16,0.92
2013-2-27,55,46,38,43,37,32,97,73,46,29.70,29.55,15,6,18,0.01
2013-2-28,45,41,37,34,28,25,81,60,47,29.75,29.62,17,6,22,0.00
2013-3-1,41,39,37,29,27,24,66,60,55,29.86,29.75,11,5,14,0.00
2013-3-2,37,35,32,22,20,18,60,56,52,29.89,29.83,9,5,14,0.00
2013-3-3,42,34,27,23,19,16,70,55,41,29.94,29.81,15,6,20,0.00
2013-3-4,47,35,22,20,14,9,71,45,23,30.04,29.93,15,6,19,0.00
2013-3-5,49,43,32,32,27,18,95,56,33,30.00,29.75,10,4,14,0.02
2013-3-6,33,33,32,32,32,31,96,96,95,29.77,29.55,16,5,26,0.04
2013-3-7,44,43,42,27,26,25,53,51,49,30.15,30.11,14,10,22,0.00
2013-3-8,46,42,37,31,28,26,70,59,52,30.28,30.17,13,6,16,0.00
2013-3-9,59,44,29,33,26,16,85,55,20,30.35,30.25,7,2,10,0.00
2013-3-10,62,48,28,35,28,24,85,51,29,30.30,30.19,11,4,15,0.00
2013-3-11,57,49,38,50,38,25,84,66,38,30.21,29.88,11,3,14,0.00
2013-3-12,57,55,53,52,52,50,96,89,79,29.88,29.72,10,5,14,0.69
2013-4-12,60,60,60,59,59,59,96,96,96,29.64,29.62,1,0,7,0.86
2013-4-19,64,64,64,61,61,61,88,88,88,29.84,29.84,6,6,7,0.00
2013-6-26,74,71,67,72,69,66,97,93,88,29.85,29.81,7,4,34,1.34
2013-6-27,83,73,68,74,70,67,99,91,69,29.83,29.61,7,3,34,0.00
2013-6-28,90,78,67,74,68,59,94,73,46,29.64,29.43,11,4,34,0.00
2013-6-29,83,72,64,66,62,59,89,74,44,29.59,29.51,7,4,34,0.00
2013-8-23,71,66,58,69,64,57,98,93,82,30.12,30.00,9,3,20,1.70
2013-8-24,58,55,54,57,55,53,98,98,96,30.20,30.12,0,0,20,0.01
2013-10-24,52,46,38,36,31,27,78,55,42,30.17,30.01,11,6,19,0.00
2013-10-25,54,42,32,33,29,27,82,62,40,30.34,30.16,10,3,16,0.00
2013-10-26,56,42,27,37,30,25,92,66,38,30.33,29.97,11,4,20,0.00
2013-10-27,62,47,37,44,38,32,90,72,43,30.15,29.98,7,2,16,0.00
2013-10-28,64,47,35,48,40,33,95,79,51,30.28,30.14,4,1,10,0.00
2013-10-29,64,50,38,49,43,37,97,81,54,30.38,30.28,5,1,8,0.00
2013-10-30,69,57,48,58,52,45,96,85,68,30.33,30.12,7,2,10,0.05
2013-10-31,67,60,52,60,56,51,98,89,77,30.17,29.76,9,4,16,0.00
2013-11-1,76,67,54,63,58,49,96,75,41,29.77,29.58,16,7,28,0.07
2013-11-2,66,56,45,54,45,38,98,71,37,29.90,29.64,10,3,18,0.00
2013-11-3,57,49,34,38,33,25,79,56,31,30.42,29.90,12,4,23,0.00
2013-11-4,46,38,32,30,26,23,87,65,43,30.63,30.42,8,3,13,0.00
2013-11-5,54,44,30,46,36,27,92,76,54,30.63,30.47,3,1,6,0.00
2013-11-6,67,56,48,53,49,45,93,80,59,30.47,30.07,10,3,16,0.00
2013-11-7,63,53,43,57,44,25,97,75,42,30.10,29.88,17,4,26,0.05
2013-11-8,52,42,30,30,26,23,83,55,36,30.33,30.10,14,4,24,0.00
2013-11-9,55,41,26,32,28,23,91,63,39,30.36,30.07,10,4,20,0.00
2013-11-10,66,50,38,40,30,25,69,49,22,30.26,29.96,16,6,31,0.00
2013-11-11,59,47,33,33,29,26,79,53,31,30.31,30.02,9,4,16,0.00
2013-11-12,48,47,46,31,31,30,56,53,51,30.02,29.96,6,4,9,0.00